Termez Airport
UTST : now visible

Airfield :











YOU CAN JOIN US ON...

 
LOGIN :

Register | Disclaimer

   EN    FR    IT 

 









Legend :    VFR   Marginal VFR   IFR   Intensive IFR   Very Intensive IFR
Visi :
Ceiling :
>= 8 km
>= 3000ft
5 to 8 km
1000 to 3000 ft
1500m to 5 km
500 to 1000 ft
800 to 1500m
200 to 500 ft
< 800m
< 200 ft
Symbols :   Thunderstorms  Fog  Heavy snow  Heavy precipitations  Wind > 20 kt






- Airport Elevation : 1027 ft
- IATA code : TMJ


UTST - Termez

CURRENT METAR :
  • 181200Z 24012KT CAVOK 24/M11 Q1019 R88/CLRD70 NOSIG

EXPIRED METARs :
  • 181130Z 23012KT CAVOK 25/M10 Q1019 R88/CLRD70 NOSIG
  • 181100Z 24014KT CAVOK 25/M10 Q1019 R88/CLRD70 NOSIG
  • 181030Z 24014KT CAVOK 25/M09 Q1019 R88/CLRD70 NOSIG
  • 181000Z 25016KT 210V280 CAVOK 25/M09 Q1019 R88/CLRD70 NOSIG
  • 180930Z 26016G26KT CAVOK 25/M07 Q1019 R88/CLRD70 NOSIG

TAF TAF UTST
Valid from the 18 at 12:00 until the 19 at 12:00 UTC


181100Z 1812/1912 24010G20KT 6000 NSC
TEMPO 1812/1818 26016G26KT 3000 -DS SCT060CB SCT100
UTSD FIR / Asia



MET'MAP, your aeronautical weather chart ! - Copyright ORBIFLY December 2007 - Disclaimer

ORBIFLY MET'MAP TEAM :

Programming & Development : Alexandra Zaïnal
Concept & original design : Baudouin d'Aumeries
Assistance for programming : Marc-Olivier Méhu
Technical & hardware support : Manuel Goepfert

Contact : metmap@orbifly.com




SOURCES & CREDITS :

   NOAA       Earth
Advisory